createdAt,value
2022-07-28T00:00:26.243Z,18.74
2022-07-28T00:03:28.047Z,18.71
2022-07-28T00:06:29.751Z,18.60
2022-07-28T00:09:31.788Z,18.63
2022-07-28T00:12:33.606Z,18.62
2022-07-28T00:15:35.343Z,18.57
2022-07-28T00:18:37.061Z,18.34
2022-07-28T00:21:38.782Z,18.19
2022-07-28T00:24:40.469Z,18.23
2022-07-28T00:27:42.206Z,18.19
2022-07-28T00:30:43.919Z,18.14
2022-07-28T00:33:45.777Z,18.16
2022-07-28T00:36:47.518Z,18.12
2022-07-28T00:39:49.271Z,18.04
2022-07-28T00:42:50.974Z,18.00
2022-07-28T00:45:54.128Z,18.21
2022-07-28T00:48:58.342Z,18.15
2022-07-28T00:52:01.044Z,18.21
2022-07-28T00:55:04.876Z,18.11
2022-07-28T00:58:06.532Z,18.13
2022-07-28T01:01:10.774Z,18.06
2022-07-28T01:04:12.778Z,18.03
2022-07-28T01:07:14.537Z,18.11
2022-07-28T01:10:49.177Z,18.05
2022-07-28T01:14:17.947Z,17.93
2022-07-28T01:17:44.219Z,17.87
2022-07-28T01:20:53.683Z,17.77
2022-07-28T01:24:21.601Z,17.83
2022-07-28T01:27:35.147Z,17.80
2022-07-28T01:30:41.800Z,17.81
2022-07-28T01:33:48.926Z,17.81
2022-07-28T01:36:56.002Z,17.87
2022-07-28T01:40:02.899Z,17.76
2022-07-28T01:43:09.306Z,17.66
2022-07-28T01:46:17.058Z,17.56
2022-07-28T01:49:21.346Z,17.56
2022-07-28T01:52:25.168Z,17.52
2022-07-28T01:55:27.941Z,17.48
2022-07-28T01:58:30.732Z,17.43
2022-07-28T02:01:36.646Z,17.45
2022-07-28T02:04:40.002Z,17.36
2022-07-28T02:07:43.483Z,17.30
2022-07-28T02:11:09.119Z,17.08
2022-07-28T02:14:16.686Z,16.87
2022-07-28T02:17:25.446Z,16.76
2022-07-28T02:20:27.516Z,16.81
2022-07-28T02:23:29.651Z,16.78
2022-07-28T02:26:36.079Z,16.81
2022-07-28T02:29:53.027Z,16.85
2022-07-28T02:32:56.910Z,16.72
2022-07-28T02:36:16.282Z,16.71
2022-07-28T02:39:23.895Z,16.74
2022-07-28T02:42:30.812Z,16.78
2022-07-28T02:45:34.152Z,16.83
2022-07-28T02:48:39.610Z,16.85
2022-07-28T02:51:43.572Z,16.79
2022-07-28T02:54:46.691Z,16.64
2022-07-28T02:57:52.047Z,16.70
2022-07-28T03:00:58.861Z,16.66
2022-07-28T03:04:01.822Z,16.53
2022-07-28T03:07:08.118Z,16.40
2022-07-28T03:10:34.211Z,16.46
2022-07-28T03:13:38.061Z,16.56
2022-07-28T03:16:39.705Z,16.47
2022-07-28T03:19:41.461Z,16.59
2022-07-28T03:22:43.216Z,16.50
2022-07-28T03:25:49.138Z,16.39
2022-07-28T03:28:53.104Z,16.44
2022-07-28T03:31:57.145Z,16.30
2022-07-28T03:34:59.030Z,16.09
2022-07-28T03:38:17.964Z,15.96
2022-07-28T03:41:22.984Z,15.93
2022-07-28T03:44:28.826Z,15.96
2022-07-28T03:47:30.812Z,16.05
2022-07-28T03:50:34.528Z,16.09
2022-07-28T03:53:36.825Z,16.08
2022-07-28T03:56:38.509Z,16.04
2022-07-28T03:59:40.226Z,16.05
2022-07-28T04:02:44.040Z,15.94
2022-07-28T04:05:46.933Z,15.98
2022-07-28T04:08:48.637Z,15.90
2022-07-28T04:11:50.299Z,15.93
2022-07-28T04:14:51.935Z,15.91
2022-07-28T04:17:55.272Z,15.88
2022-07-28T04:20:57.042Z,15.83
2022-07-28T04:24:01.960Z,15.81
2022-07-28T04:27:04.075Z,15.69
2022-07-28T04:30:08.115Z,15.84
2022-07-28T04:33:09.878Z,15.62
2022-07-28T04:36:11.928Z,15.67
2022-07-28T04:39:13.612Z,15.77
2022-07-28T04:42:16.258Z,15.84
2022-07-28T04:45:17.946Z,15.84
2022-07-28T04:48:19.615Z,15.67
2022-07-28T04:51:24.256Z,15.63
2022-07-28T04:54:26.999Z,15.69
2022-07-28T04:57:30.069Z,15.87
2022-07-28T05:00:32.439Z,15.86
2022-07-28T05:03:36.278Z,15.85
2022-07-28T05:06:38.315Z,15.91
2022-07-28T05:09:40.138Z,15.99
2022-07-28T05:12:42.063Z,16.11
2022-07-28T05:15:43.817Z,16.16
2022-07-28T05:18:45.742Z,16.06
2022-07-28T05:21:47.549Z,16.02
2022-07-28T05:24:49.263Z,15.99
2022-07-28T05:27:51.870Z,15.98
2022-07-28T05:30:54.254Z,15.95
2022-07-28T05:33:55.963Z,16.01
2022-07-28T05:36:58.726Z,16.09
2022-07-28T05:40:01.011Z,16.02
2022-07-28T05:43:02.741Z,16.05
2022-07-28T05:46:04.797Z,16.18
2022-07-28T05:49:06.796Z,16.16
2022-07-28T05:52:08.516Z,16.26
2022-07-28T05:55:10.833Z,16.30
2022-07-28T05:58:12.701Z,16.53
2022-07-28T06:01:14.540Z,16.58
2022-07-28T06:04:26.979Z,16.50
2022-07-28T06:07:43.127Z,16.59
2022-07-28T06:11:04.623Z,16.67
2022-07-28T06:14:06.364Z,16.81
2022-07-28T06:17:08.355Z,16.85
2022-07-28T06:20:12.236Z,16.90
2022-07-28T06:23:18.214Z,16.96
2022-07-28T06:26:23.498Z,17.00
2022-07-28T06:29:25.550Z,17.12
2022-07-28T06:32:27.307Z,17.22
2022-07-28T06:35:29.069Z,17.31
2022-07-28T06:38:31.418Z,17.32
2022-07-28T06:41:33.294Z,17.49
2022-07-28T06:44:57.389Z,17.50
2022-07-28T06:47:59.145Z,17.91
2022-07-28T06:51:01.208Z,18.01
2022-07-28T06:54:04.864Z,18.16
2022-07-28T06:57:13.786Z,18.33
2022-07-28T07:00:16.063Z,18.35
2022-07-28T07:03:17.777Z,18.42
2022-07-28T07:06:19.526Z,18.73
2022-07-28T07:09:21.321Z,19.08
2022-07-28T07:12:23.312Z,19.39
2022-07-28T07:15:25.231Z,19.55
2022-07-28T07:18:27.219Z,19.95
2022-07-28T07:21:29.158Z,20.39
2022-07-28T07:24:31.194Z,20.72
2022-07-28T07:27:33.043Z,20.70
2022-07-28T07:30:34.863Z,20.84
2022-07-28T07:33:36.654Z,21.08
2022-07-28T07:36:38.416Z,21.56
2022-07-28T07:39:40.625Z,21.79
2022-07-28T07:42:42.407Z,22.00
2022-07-28T07:45:44.314Z,22.12
2022-07-28T07:48:46.232Z,22.12
2022-07-28T07:51:48.165Z,22.15
2022-07-28T07:54:50.051Z,22.63
2022-07-28T07:57:51.916Z,22.83
2022-07-28T08:00:53.831Z,22.45
2022-07-28T08:03:55.537Z,22.64
2022-07-28T08:06:57.372Z,22.57
2022-07-28T08:09:59.026Z,22.89
2022-07-28T08:13:01.269Z,23.37
2022-07-28T08:16:03.926Z,23.44
2022-07-28T08:19:06.207Z,23.37
2022-07-28T08:22:07.894Z,23.35
2022-07-28T08:25:09.598Z,23.61
2022-07-28T08:28:11.289Z,24.22
2022-07-28T08:31:14.925Z,24.46
2022-07-28T08:34:31.337Z,24.70
2022-07-28T08:37:35.763Z,24.36
2022-07-28T08:40:38.996Z,24.91
2022-07-28T08:43:42.783Z,25.28
2022-07-28T08:46:48.068Z,25.09
2022-07-28T08:49:51.904Z,24.72
2022-07-28T08:52:54.865Z,24.68
2022-07-28T08:56:03.392Z,25.40
2022-07-28T08:59:05.102Z,25.35
2022-07-28T09:02:11.866Z,25.10
2022-07-28T09:05:13.962Z,25.29
2022-07-28T09:08:17.848Z,25.70
2022-07-28T09:11:19.689Z,26.00
2022-07-28T09:14:22.189Z,26.00
2022-07-28T09:17:24.258Z,26.51
2022-07-28T09:20:26.341Z,26.59
2022-07-28T09:23:45.506Z,26.74
2022-07-28T09:27:01.284Z,26.68
2022-07-28T09:30:03.126Z,26.99
2022-07-28T09:33:41.325Z,27.04
2022-07-28T09:36:40.952Z,27.11
2022-07-28T09:39:42.688Z,27.27
2022-07-28T09:42:55.415Z,27.81
2022-07-28T09:46:13.505Z,28.07
2022-07-28T09:49:15.659Z,27.84
2022-07-28T09:52:47.352Z,27.92
2022-07-28T09:56:00.640Z,28.06
2022-07-28T09:59:03.737Z,28.19
2022-07-28T10:02:06.096Z,28.10
2022-07-28T10:05:10.556Z,27.30
2022-07-28T10:08:12.323Z,27.27
2022-07-28T10:11:18.722Z,27.77
2022-07-28T10:14:32.053Z,28.38
2022-07-28T10:17:34.653Z,28.51
2022-07-28T10:20:37.089Z,28.42
2022-07-28T10:23:39.818Z,28.52
2022-07-28T10:26:47.123Z,28.78
2022-07-28T10:30:05.556Z,28.87
2022-07-28T10:33:13.985Z,28.39
2022-07-28T10:36:17.981Z,28.58
2022-07-28T10:39:22.663Z,28.33
2022-07-28T10:42:24.891Z,28.13
2022-07-28T10:45:48.082Z,28.84
2022-07-28T10:48:49.466Z,29.13
2022-07-28T10:52:06.534Z,29.72
2022-07-28T10:55:46.073Z,29.38
2022-07-28T10:59:07.199Z,29.67
2022-07-28T11:02:09.061Z,30.21
2022-07-28T11:05:31.058Z,30.17
2022-07-28T11:08:34.473Z,30.55
2022-07-28T11:11:51.981Z,31.18
2022-07-28T11:14:54.929Z,31.43
2022-07-28T11:18:00.612Z,30.40
2022-07-28T11:21:05.504Z,30.40
2022-07-28T11:24:09.578Z,29.99
2022-07-28T11:27:14.686Z,30.79
2022-07-28T11:30:16.400Z,30.74
2022-07-28T11:33:19.828Z,30.02
2022-07-28T11:36:21.602Z,30.54
2022-07-28T11:39:25.636Z,31.01
2022-07-28T11:42:35.918Z,31.38
2022-07-28T11:45:39.378Z,31.47
2022-07-28T11:48:44.839Z,31.76
2022-07-28T11:52:08.698Z,32.04
2022-07-28T11:55:18.407Z,32.25
2022-07-28T11:58:27.646Z,31.77
2022-07-28T12:01:31.857Z,31.82
2022-07-28T12:04:34.441Z,32.18
2022-07-28T12:07:39.630Z,31.98
2022-07-28T12:10:54.442Z,31.48
2022-07-28T12:14:13.708Z,31.40
2022-07-28T12:17:15.765Z,30.99
2022-07-28T12:20:18.440Z,31.33
2022-07-28T12:23:39.297Z,31.43
2022-07-28T12:26:50.247Z,32.35
2022-07-28T12:30:00.762Z,32.46
2022-07-28T12:33:16.439Z,32.65
2022-07-28T12:36:19.834Z,32.34
2022-07-28T12:39:23.006Z,32.40
2022-07-28T12:42:31.444Z,32.34
2022-07-28T12:45:36.003Z,32.58
2022-07-28T12:48:41.383Z,32.59
2022-07-28T12:51:45.346Z,32.26
2022-07-28T12:54:54.934Z,32.97
2022-07-28T12:57:58.223Z,32.37
2022-07-28T13:00:59.979Z,32.33
2022-07-28T13:04:01.717Z,32.33
2022-07-28T13:07:09.735Z,31.99
2022-07-28T13:10:12.731Z,31.92
2022-07-28T13:13:14.845Z,31.99
2022-07-28T13:16:21.160Z,32.87
2022-07-28T13:19:23.120Z,32.46
2022-07-28T13:22:30.182Z,32.00
2022-07-28T13:25:31.862Z,32.35
2022-07-28T13:28:34.585Z,32.61
2022-07-28T13:31:36.795Z,33.24
2022-07-28T13:34:38.439Z,33.06
2022-07-28T13:37:40.300Z,33.57
2022-07-28T13:40:42.318Z,33.58
2022-07-28T13:43:48.214Z,34.09
2022-07-28T13:46:50.671Z,33.68
2022-07-28T13:49:52.539Z,33.56
2022-07-28T13:52:54.612Z,32.94
2022-07-28T13:55:56.385Z,33.36
2022-07-28T13:58:58.210Z,33.08
2022-07-28T14:02:01.454Z,33.38
2022-07-28T14:05:03.784Z,32.65
2022-07-28T14:08:05.601Z,32.45
2022-07-28T14:11:07.283Z,33.28
2022-07-28T14:14:09.680Z,33.53
2022-07-28T14:17:40.199Z,34.07
2022-07-28T14:20:36.566Z,34.06
2022-07-28T14:23:38.439Z,33.39
2022-07-28T14:26:40.197Z,33.36
2022-07-28T14:29:43.403Z,33.54
2022-07-28T14:32:45.247Z,33.84
2022-07-28T14:35:47.539Z,33.81
2022-07-28T14:38:53.686Z,33.16
2022-07-28T14:41:56.238Z,32.96
2022-07-28T14:44:59.527Z,33.28
2022-07-28T14:48:01.232Z,32.86
2022-07-28T14:51:03.006Z,32.79
2022-07-28T14:54:04.745Z,32.86
2022-07-28T14:57:06.467Z,33.30
2022-07-28T15:00:13.831Z,33.23
2022-07-28T15:03:16.677Z,33.35
2022-07-28T15:06:18.349Z,33.06
2022-07-28T15:09:20.603Z,32.90
2022-07-28T15:12:22.750Z,32.54
2022-07-28T15:15:26.683Z,31.72
2022-07-28T15:18:28.538Z,32.36
2022-07-28T15:21:35.912Z,31.45
2022-07-28T15:24:38.085Z,31.42
2022-07-28T15:27:45.375Z,31.11
2022-07-28T15:30:51.876Z,31.46
2022-07-28T15:33:57.960Z,32.00
2022-07-28T15:37:01.109Z,31.99
2022-07-28T15:40:03.439Z,31.75
2022-07-28T15:43:05.210Z,32.61
2022-07-28T15:46:10.546Z,32.56
2022-07-28T15:49:12.785Z,32.40
2022-07-28T15:52:14.706Z,32.88
2022-07-28T15:55:16.590Z,32.31
2022-07-28T15:58:18.600Z,32.25
2022-07-28T16:01:20.699Z,31.85
2022-07-28T16:04:22.479Z,31.48
2022-07-28T16:07:28.210Z,31.53
2022-07-28T16:10:30.032Z,31.71
2022-07-28T16:13:36.353Z,32.08
2022-07-28T16:16:38.981Z,31.86
2022-07-28T16:19:50.315Z,32.52
2022-07-28T16:22:52.574Z,32.87
2022-07-28T16:25:54.372Z,32.57
2022-07-28T16:28:56.128Z,32.44
2022-07-28T16:31:57.917Z,32.02
2022-07-28T16:34:59.709Z,31.39
2022-07-28T16:38:03.158Z,31.24
2022-07-28T16:41:05.156Z,30.88
2022-07-28T16:44:06.787Z,30.93
2022-07-28T16:47:08.562Z,31.25
2022-07-28T16:50:10.383Z,30.63
2022-07-28T16:53:13.851Z,30.44
2022-07-28T16:56:19.226Z,30.49
2022-07-28T16:59:22.213Z,30.30
2022-07-28T17:02:24.091Z,30.08
2022-07-28T17:05:25.921Z,29.98
2022-07-28T17:08:27.783Z,30.13
2022-07-28T17:11:29.515Z,30.09
2022-07-28T17:14:31.209Z,29.73
2022-07-28T17:17:33.653Z,29.52
2022-07-28T17:20:38.509Z,29.57
2022-07-28T17:23:40.307Z,29.59
2022-07-28T17:30:03.980Z,29.17
2022-07-28T17:33:08.673Z,29.44
2022-07-28T17:36:11.150Z,29.27
2022-07-28T17:39:13.111Z,29.14
2022-07-28T17:42:14.726Z,28.97
2022-07-28T17:45:16.486Z,28.86
2022-07-28T17:48:18.704Z,28.79
2022-07-28T17:51:20.532Z,28.53
2022-07-28T17:54:25.122Z,28.53
2022-07-28T17:57:27.749Z,28.25
2022-07-28T18:00:32.260Z,28.37
2022-07-28T18:03:59.797Z,28.42
2022-07-28T18:06:55.652Z,28.53
2022-07-28T18:09:57.232Z,28.39
2022-07-28T18:12:58.928Z,28.08
2022-07-28T18:16:00.741Z,28.21
2022-07-28T18:19:03.081Z,28.37
2022-07-28T18:22:05.247Z,28.33
2022-07-28T18:25:08.962Z,28.39
2022-07-28T18:28:11.180Z,28.34
2022-07-28T18:31:13.903Z,28.38
2022-07-28T18:34:16.073Z,28.30
2022-07-28T18:37:18.140Z,28.19
2022-07-28T18:40:23.972Z,28.04
2022-07-28T18:43:25.722Z,27.87
2022-07-28T18:46:27.596Z,27.76
2022-07-28T18:49:29.423Z,27.84
2022-07-28T18:52:40.960Z,27.73
2022-07-28T18:55:42.599Z,27.60
2022-07-28T18:58:44.329Z,27.68
2022-07-28T19:01:47.635Z,27.58
2022-07-28T19:04:49.402Z,27.33
2022-07-28T19:07:51.079Z,27.20
2022-07-28T19:10:52.761Z,27.09
2022-07-28T19:13:54.375Z,26.82
2022-07-28T19:16:56.391Z,26.44
2022-07-28T19:19:59.341Z,26.29
2022-07-28T19:23:05.274Z,26.21
2022-07-28T19:26:07.517Z,26.33
2022-07-28T19:29:09.416Z,26.21
2022-07-28T19:32:11.238Z,25.95
2022-07-28T19:35:14.594Z,25.82
2022-07-28T19:38:16.327Z,25.74
2022-07-28T19:41:18.123Z,25.67
2022-07-28T19:44:19.800Z,25.56
2022-07-28T19:47:21.576Z,25.14
2022-07-28T19:50:23.471Z,25.15
2022-07-28T19:53:31.635Z,25.02
2022-07-28T19:56:34.347Z,25.01
2022-07-28T19:59:36.273Z,24.95
2022-07-28T20:02:38.508Z,24.88
2022-07-28T20:05:40.404Z,24.75
2022-07-28T20:08:42.115Z,24.67
2022-07-28T20:11:43.810Z,24.67
2022-07-28T20:14:45.451Z,24.70
2022-07-28T20:17:47.228Z,24.61
2022-07-28T20:20:48.940Z,24.56
2022-07-28T20:23:52.451Z,24.50
2022-07-28T20:26:54.172Z,24.44
2022-07-28T20:29:55.935Z,24.38
2022-07-28T20:32:57.810Z,24.28
2022-07-28T20:35:59.485Z,24.29
2022-07-28T20:39:01.376Z,24.27
2022-07-28T20:42:04.390Z,24.23
2022-07-28T20:45:06.523Z,24.27
2022-07-28T20:48:08.311Z,24.35
2022-07-28T20:51:18.054Z,24.25
2022-07-28T20:54:20.982Z,24.26
2022-07-28T20:57:23.377Z,24.19
2022-07-28T21:00:25.444Z,24.08
2022-07-28T21:03:27.267Z,24.16
2022-07-28T21:06:28.973Z,24.09
2022-07-28T21:09:30.847Z,24.12
2022-07-28T21:12:33.883Z,24.07
2022-07-28T21:15:35.576Z,24.04
2022-07-28T21:18:37.290Z,24.03
2022-07-28T21:21:39.095Z,23.83
2022-07-28T21:24:40.839Z,23.74
2022-07-28T21:28:01.527Z,23.67
2022-07-28T21:31:04.021Z,23.64
2022-07-28T21:34:05.767Z,23.63
2022-07-28T21:37:07.772Z,23.61
2022-07-28T21:40:09.918Z,23.62
2022-07-28T21:43:11.662Z,23.64
2022-07-28T21:46:13.462Z,23.62
2022-07-28T21:49:15.312Z,23.67
2022-07-28T21:52:17.081Z,23.65
2022-07-28T21:55:18.801Z,23.69
2022-07-28T21:58:20.547Z,23.68
2022-07-28T22:01:23.889Z,23.54
2022-07-28T22:04:25.803Z,23.46
2022-07-28T22:07:27.906Z,23.43
2022-07-28T22:10:30.192Z,23.44
2022-07-28T22:13:31.861Z,23.37
2022-07-28T22:16:33.645Z,23.33
2022-07-28T22:19:35.557Z,23.28
2022-07-28T22:22:37.671Z,23.23
2022-07-28T22:25:39.929Z,23.10
2022-07-28T22:28:41.671Z,23.11
2022-07-28T22:31:44.588Z,23.11
2022-07-28T22:34:46.352Z,23.08
2022-07-28T22:37:49.632Z,23.10
2022-07-28T22:40:51.438Z,23.10
2022-07-28T22:43:53.219Z,23.12
2022-07-28T22:46:55.391Z,23.10
2022-07-28T22:49:57.138Z,23.14
2022-07-28T22:52:58.826Z,23.17
2022-07-28T22:56:00.556Z,23.15
2022-07-28T22:59:02.237Z,23.11
2022-07-28T23:02:03.968Z,23.16
2022-07-28T23:05:05.892Z,23.13
2022-07-28T23:08:07.657Z,23.19
2022-07-28T23:11:09.399Z,23.10
2022-07-28T23:14:11.029Z,23.03
2022-07-28T23:17:12.769Z,22.97
2022-07-28T23:20:14.541Z,22.94
2022-07-28T23:23:18.515Z,22.96
2022-07-28T23:26:20.276Z,22.79
2022-07-28T23:29:22.357Z,22.86
2022-07-28T23:32:24.014Z,22.78
2022-07-28T23:35:25.933Z,22.64
2022-07-28T23:38:27.617Z,22.72
2022-07-28T23:41:29.531Z,22.74
2022-07-28T23:44:31.235Z,22.71
2022-07-28T23:47:34.382Z,22.68
2022-07-28T23:50:36.126Z,22.64
2022-07-28T23:53:39.090Z,22.69
2022-07-28T23:56:40.745Z,22.63
2022-07-28T23:59:42.421Z,22.48
